sensor_id;sensor_type;location;lat;lon;timestamp;temperature;humidity
12604;DHT22;6367;52.508;13.284;2023-11-19T00:00:11;8.00;99.90
12604;DHT22;6367;52.508;13.284;2023-11-19T00:02:40;7.90;99.90
12604;DHT22;6367;52.508;13.284;2023-11-19T00:05:06;8.00;99.90
12604;DHT22;6367;52.508;13.284;2023-11-19T00:07:35;8.10;99.90
12604;DHT22;6367;52.508;13.284;2023-11-19T00:10:02;8.10;99.90
12604;DHT22;6367;52.508;13.284;2023-11-19T00:12:32;8.00;99.90
12604;DHT22;6367;52.508;13.284;2023-11-19T00:15:01;8.20;99.90
12604;DHT22;6367;52.508;13.284;2023-11-19T00:17:27;8.00;99.90
12604;DHT22;6367;52.508;13.284;2023-11-19T00:19:52;8.00;99.90
12604;DHT22;6367;52.508;13.284;2023-11-19T00:22:18;7.90;99.90
12604;DHT22;6367;52.508;13.284;2023-11-19T00:24:46;7.90;99.90
12604;DHT22;6367;52.508;13.284;2023-11-19T00:27:11;8.00;99.90
12604;DHT22;6367;52.508;13.284;2023-11-19T00:29:37;8.00;99.90
12604;DHT22;6367;52.508;13.284;2023-11-19T00:32:03;8.10;99.90
12604;DHT22;6367;52.508;13.284;2023-11-19T00:34:28;8.00;99.90
12604;DHT22;6367;52.508;13.284;2023-11-19T00:36:54;8.70;99.90
12604;DHT22;6367;52.508;13.284;2023-11-19T00:39:21;8.00;99.90
12604;DHT22;6367;52.508;13.284;2023-11-19T00:41:47;8.00;99.90
12604;DHT22;6367;52.508;13.284;2023-11-19T00:44:12;8.00;99.90
12604;DHT22;6367;52.508;13.284;2023-11-19T00:46:38;8.10;99.90
12604;DHT22;6367;52.508;13.284;2023-11-19T00:49:03;8.10;99.90
12604;DHT22;6367;52.508;13.284;2023-11-19T00:51:29;8.10;99.90
12604;DHT22;6367;52.508;13.284;2023-11-19T00:53:57;8.20;99.90
12604;DHT22;6367;52.508;13.284;2023-11-19T00:56:22;9.00;99.90
12604;DHT22;6367;52.508;13.284;2023-11-19T00:58:48;8.10;99.90
12604;DHT22;6367;52.508;13.284;2023-11-19T01:01:14;8.10;99.90
12604;DHT22;6367;52.508;13.284;2023-11-19T01:03:39;8.20;99.90
12604;DHT22;6367;52.508;13.284;2023-11-19T01:06:05;8.30;99.90
12604;DHT22;6367;52.508;13.284;2023-11-19T01:08:31;8.30;99.90
12604;DHT22;6367;52.508;13.284;2023-11-19T01:10:57;9.00;99.90
12604;DHT22;6367;52.508;13.284;2023-11-19T01:13:22;8.40;99.90
12604;DHT22;6367;52.508;13.284;2023-11-19T01:15:48;9.10;99.90
12604;DHT22;6367;52.508;13.284;2023-11-19T01:18:14;9.00;99.90
12604;DHT22;6367;52.508;13.284;2023-11-19T01:20:39;8.30;99.90
12604;DHT22;6367;52.508;13.284;2023-11-19T01:23:05;8.30;99.90
12604;DHT22;6367;52.508;13.284;2023-11-19T01:25:31;8.20;99.90
12604;DHT22;6367;52.508;13.284;2023-11-19T01:27:56;8.30;99.90
12604;DHT22;6367;52.508;13.284;2023-11-19T01:30:24;8.30;99.90
12604;DHT22;6367;52.508;13.284;2023-11-19T01:32:50;8.30;99.90
12604;DHT22;6367;52.508;13.284;2023-11-19T01:35:15;8.30;99.90
12604;DHT22;6367;52.508;13.284;2023-11-19T01:37:41;8.20;99.90
12604;DHT22;6367;52.508;13.284;2023-11-19T01:40:07;8.30;99.90
12604;DHT22;6367;52.508;13.284;2023-11-19T01:42:39;8.30;99.90
12604;DHT22;6367;52.508;13.284;2023-11-19T01:45:05;8.30;99.90
12604;DHT22;6367;52.508;13.284;2023-11-19T01:47:35;8.30;99.90
12604;DHT22;6367;52.508;13.284;2023-11-19T01:50:02;8.20;99.90
12604;DHT22;6367;52.508;13.284;2023-11-19T01:52:33;8.30;99.90
12604;DHT22;6367;52.508;13.284;2023-11-19T01:54:59;8.20;99.90
12604;DHT22;6367;52.508;13.284;2023-11-19T01:57:25;7.40;99.90
12604;DHT22;6367;52.508;13.284;2023-11-19T01:59:52;8.20;99.90
12604;DHT22;6367;52.508;13.284;2023-11-19T02:02:18;8.10;99.90
12604;DHT22;6367;52.508;13.284;2023-11-19T02:04:49;8.10;99.90
12604;DHT22;6367;52.508;13.284;2023-11-19T02:07:15;8.10;99.90
12604;DHT22;6367;52.508;13.284;2023-11-19T02:09:43;8.10;99.90
12604;DHT22;6367;52.508;13.284;2023-11-19T02:12:09;8.00;99.90
12604;DHT22;6367;52.508;13.284;2023-11-19T02:14:37;8.10;99.90
12604;DHT22;6367;52.508;13.284;2023-11-19T02:17:03;8.10;99.90
12604;DHT22;6367;52.508;13.284;2023-11-19T02:19:29;8.10;99.90
12604;DHT22;6367;52.508;13.284;2023-11-19T02:21:55;8.00;99.90
12604;DHT22;6367;52.508;13.284;2023-11-19T02:24:22;8.10;99.90
12604;DHT22;6367;52.508;13.284;2023-11-19T02:27:02;8.10;99.90
12604;DHT22;6367;52.508;13.284;2023-11-19T02:29:33;8.10;99.90
12604;DHT22;6367;52.508;13.284;2023-11-19T02:32:00;8.20;99.90
12604;DHT22;6367;52.508;13.284;2023-11-19T02:34:28;8.20;99.90
12604;DHT22;6367;52.508;13.284;2023-11-19T02:36:54;8.10;99.90
12604;DHT22;6367;52.508;13.284;2023-11-19T02:39:20;8.20;99.90
12604;DHT22;6367;52.508;13.284;2023-11-19T02:41:47;8.30;99.90
12604;DHT22;6367;52.508;13.284;2023-11-19T02:44:16;8.30;99.90
12604;DHT22;6367;52.508;13.284;2023-11-19T02:46:42;8.20;99.90
12604;DHT22;6367;52.508;13.284;2023-11-19T02:49:08;8.30;99.90
12604;DHT22;6367;52.508;13.284;2023-11-19T02:51:33;8.30;99.90
12604;DHT22;6367;52.508;13.284;2023-11-19T02:54:00;8.30;99.90
12604;DHT22;6367;52.508;13.284;2023-11-19T02:56:26;8.40;99.90
12604;DHT22;6367;52.508;13.284;2023-11-19T02:58:52;8.40;99.90
12604;DHT22;6367;52.508;13.284;2023-11-19T03:01:26;8.40;99.90
12604;DHT22;6367;52.508;13.284;2023-11-19T03:03:59;8.50;99.90
12604;DHT22;6367;52.508;13.284;2023-11-19T03:06:27;8.50;99.90
12604;DHT22;6367;52.508;13.284;2023-11-19T03:08:54;8.40;99.90
12604;DHT22;6367;52.508;13.284;2023-11-19T03:11:20;8.50;99.90
12604;DHT22;6367;52.508;13.284;2023-11-19T03:13:46;8.50;99.90
12604;DHT22;6367;52.508;13.284;2023-11-19T03:16:12;8.50;99.90
12604;DHT22;6367;52.508;13.284;2023-11-19T03:18:38;8.40;99.90
12604;DHT22;6367;52.508;13.284;2023-11-19T03:21:06;8.50;99.90
12604;DHT22;6367;52.508;13.284;2023-11-19T03:23:33;8.40;99.90
12604;DHT22;6367;52.508;13.284;2023-11-19T03:25:59;8.40;99.90
12604;DHT22;6367;52.508;13.284;2023-11-19T03:28:28;8.50;99.90
12604;DHT22;6367;52.508;13.284;2023-11-19T03:30:54;8.60;99.90
12604;DHT22;6367;52.508;13.284;2023-11-19T03:33:20;8.50;99.90
12604;DHT22;6367;52.508;13.284;2023-11-19T03:35:46;8.50;99.90
12604;DHT22;6367;52.508;13.284;2023-11-19T03:38:12;8.50;99.90
12604;DHT22;6367;52.508;13.284;2023-11-19T03:40:38;9.00;99.90
12604;DHT22;6367;52.508;13.284;2023-11-19T03:43:04;8.40;99.90
12604;DHT22;6367;52.508;13.284;2023-11-19T03:45:30;8.30;99.90
12604;DHT22;6367;52.508;13.284;2023-11-19T03:47:56;8.30;99.90
12604;DHT22;6367;52.508;13.284;2023-11-19T03:50:22;8.20;99.90
12604;DHT22;6367;52.508;13.284;2023-11-19T03:52:48;8.20;99.90
12604;DHT22;6367;52.508;13.284;2023-11-19T03:55:13;8.10;99.90
12604;DHT22;6367;52.508;13.284;2023-11-19T03:57:39;8.10;99.90
12604;DHT22;6367;52.508;13.284;2023-11-19T04:00:05;8.10;99.90
12604;DHT22;6367;52.508;13.284;2023-11-19T04:02:36;7.90;99.90
12604;DHT22;6367;52.508;13.284;2023-11-19T04:05:02;8.20;99.90
12604;DHT22;6367;52.508;13.284;2023-11-19T04:07:29;7.90;99.90
12604;DHT22;6367;52.508;13.284;2023-11-19T04:09:55;7.80;99.90
12604;DHT22;6367;52.508;13.284;2023-11-19T04:12:21;7.90;99.90
12604;DHT22;6367;52.508;13.284;2023-11-19T04:14:47;7.90;99.90
12604;DHT22;6367;52.508;13.284;2023-11-19T04:17:13;7.90;99.90
12604;DHT22;6367;52.508;13.284;2023-11-19T04:19:38;7.80;99.90
12604;DHT22;6367;52.508;13.284;2023-11-19T04:22:07;7.70;99.90
12604;DHT22;6367;52.508;13.284;2023-11-19T04:24:33;7.80;99.90
12604;DHT22;6367;52.508;13.284;2023-11-19T04:26:59;7.80;99.90
12604;DHT22;6367;52.508;13.284;2023-11-19T04:29:25;7.60;99.90
12604;DHT22;6367;52.508;13.284;2023-11-19T04:31:50;7.80;99.90
12604;DHT22;6367;52.508;13.284;2023-11-19T04:34:16;7.80;99.90
12604;DHT22;6367;52.508;13.284;2023-11-19T04:36:42;7.90;99.90
12604;DHT22;6367;52.508;13.284;2023-11-19T04:39:09;7.90;99.90
12604;DHT22;6367;52.508;13.284;2023-11-19T04:41:35;7.80;99.90
12604;DHT22;6367;52.508;13.284;2023-11-19T04:44:02;7.80;99.90
12604;DHT22;6367;52.508;13.284;2023-11-19T04:46:27;7.90;99.90
12604;DHT22;6367;52.508;13.284;2023-11-19T04:48:53;8.00;99.90
12604;DHT22;6367;52.508;13.284;2023-11-19T04:51:18;7.90;99.90
12604;DHT22;6367;52.508;13.284;2023-11-19T04:53:44;7.90;99.90
12604;DHT22;6367;52.508;13.284;2023-11-19T04:56:11;7.90;99.90
12604;DHT22;6367;52.508;13.284;2023-11-19T04:58:36;8.00;99.90
12604;DHT22;6367;52.508;13.284;2023-11-19T05:01:03;8.00;99.90
12604;DHT22;6367;52.508;13.284;2023-11-19T05:03:30;7.90;99.90
12604;DHT22;6367;52.508;13.284;2023-11-19T05:05:55;7.90;99.90
12604;DHT22;6367;52.508;13.284;2023-11-19T05:08:21;7.90;99.90
12604;DHT22;6367;52.508;13.284;2023-11-19T05:10:47;7.90;99.90
12604;DHT22;6367;52.508;13.284;2023-11-19T05:13:12;7.90;99.90
12604;DHT22;6367;52.508;13.284;2023-11-19T05:15:38;7.80;99.90
12604;DHT22;6367;52.508;13.284;2023-11-19T05:18:04;7.80;99.90
12604;DHT22;6367;52.508;13.284;2023-11-19T05:20:30;7.80;99.90
12604;DHT22;6367;52.508;13.284;2023-11-19T05:22:56;7.90;99.90
12604;DHT22;6367;52.508;13.284;2023-11-19T05:25:22;7.90;99.90
12604;DHT22;6367;52.508;13.284;2023-11-19T05:27:47;7.90;99.90
12604;DHT22;6367;52.508;13.284;2023-11-19T05:30:13;7.90;99.90
12604;DHT22;6367;52.508;13.284;2023-11-19T05:32:39;7.90;99.90
12604;DHT22;6367;52.508;13.284;2023-11-19T05:35:05;7.90;99.90
12604;DHT22;6367;52.508;13.284;2023-11-19T05:37:30;7.90;99.90
12604;DHT22;6367;52.508;13.284;2023-11-19T05:39:56;8.20;99.90
12604;DHT22;6367;52.508;13.284;2023-11-19T05:42:22;8.00;99.90
12604;DHT22;6367;52.508;13.284;2023-11-19T05:44:49;7.90;99.90
12604;DHT22;6367;52.508;13.284;2023-11-19T05:47:14;7.90;99.90
12604;DHT22;6367;52.508;13.284;2023-11-19T05:49:40;8.60;99.90
12604;DHT22;6367;52.508;13.284;2023-11-19T05:52:06;7.90;99.90
12604;DHT22;6367;52.508;13.284;2023-11-19T05:54:33;7.90;99.90
12604;DHT22;6367;52.508;13.284;2023-11-19T05:57:06;7.90;99.90
12604;DHT22;6367;52.508;13.284;2023-11-19T05:59:35;8.00;99.90
12604;DHT22;6367;52.508;13.284;2023-11-19T06:02:02;7.90;99.90
12604;DHT22;6367;52.508;13.284;2023-11-19T06:04:28;8.60;99.90
12604;DHT22;6367;52.508;13.284;2023-11-19T06:06:53;7.90;99.90
12604;DHT22;6367;52.508;13.284;2023-11-19T06:09:21;8.00;99.90
12604;DHT22;6367;52.508;13.284;2023-11-19T06:11:49;7.90;99.90
12604;DHT22;6367;52.508;13.284;2023-11-19T06:14:14;8.00;99.90
12604;DHT22;6367;52.508;13.284;2023-11-19T06:16:40;8.00;99.90
12604;DHT22;6367;52.508;13.284;2023-11-19T06:19:06;8.00;99.90
12604;DHT22;6367;52.508;13.284;2023-11-19T06:21:31;8.10;99.90
12604;DHT22;6367;52.508;13.284;2023-11-19T06:23:57;8.00;99.90
12604;DHT22;6367;52.508;13.284;2023-11-19T06:26:23;8.00;99.90
12604;DHT22;6367;52.508;13.284;2023-11-19T06:28:49;8.00;99.90
12604;DHT22;6367;52.508;13.284;2023-11-19T06:31:15;8.40;99.90
12604;DHT22;6367;52.508;13.284;2023-11-19T06:33:42;8.10;99.90
12604;DHT22;6367;52.508;13.284;2023-11-19T06:36:08;8.80;99.90
12604;DHT22;6367;52.508;13.284;2023-11-19T06:38:34;8.20;99.90
12604;DHT22;6367;52.508;13.284;2023-11-19T06:41:00;8.20;99.90
12604;DHT22;6367;52.508;13.284;2023-11-19T06:43:26;8.20;99.90
12604;DHT22;6367;52.508;13.284;2023-11-19T06:45:53;8.10;99.90
12604;DHT22;6367;52.508;13.284;2023-11-19T06:48:19;8.90;99.90
12604;DHT22;6367;52.508;13.284;2023-11-19T06:50:45;8.20;99.90
12604;DHT22;6367;52.508;13.284;2023-11-19T06:53:11;8.10;99.90
12604;DHT22;6367;52.508;13.284;2023-11-19T06:55:36;8.10;99.90
12604;DHT22;6367;52.508;13.284;2023-11-19T06:58:02;8.20;99.90
12604;DHT22;6367;52.508;13.284;2023-11-19T07:00:29;8.00;99.90
12604;DHT22;6367;52.508;13.284;2023-11-19T07:02:55;8.10;99.90
12604;DHT22;6367;52.508;13.284;2023-11-19T07:05:21;8.10;99.90
12604;DHT22;6367;52.508;13.284;2023-11-19T07:07:46;8.20;99.90
12604;DHT22;6367;52.508;13.284;2023-11-19T07:10:12;8.20;99.90
12604;DHT22;6367;52.508;13.284;2023-11-19T07:12:38;8.20;99.90
12604;DHT22;6367;52.508;13.284;2023-11-19T07:15:04;8.20;99.90
12604;DHT22;6367;52.508;13.284;2023-11-19T07:17:31;8.30;99.90
12604;DHT22;6367;52.508;13.284;2023-11-19T07:19:56;8.30;99.90
12604;DHT22;6367;52.508;13.284;2023-11-19T07:22:25;8.30;99.90
12604;DHT22;6367;52.508;13.284;2023-11-19T07:24:52;8.40;99.90
12604;DHT22;6367;52.508;13.284;2023-11-19T07:27:20;8.50;99.90
12604;DHT22;6367;52.508;13.284;2023-11-19T07:29:46;8.40;99.90
12604;DHT22;6367;52.508;13.284;2023-11-19T07:32:12;8.50;99.90
12604;DHT22;6367;52.508;13.284;2023-11-19T07:34:39;8.50;99.90
12604;DHT22;6367;52.508;13.284;2023-11-19T07:37:05;8.50;99.90
12604;DHT22;6367;52.508;13.284;2023-11-19T07:39:30;8.50;99.90
12604;DHT22;6367;52.508;13.284;2023-11-19T07:41:56;8.60;99.90
12604;DHT22;6367;52.508;13.284;2023-11-19T07:44:22;8.50;99.90
12604;DHT22;6367;52.508;13.284;2023-11-19T07:46:48;8.50;99.90
12604;DHT22;6367;52.508;13.284;2023-11-19T07:49:14;8.60;99.90
12604;DHT22;6367;52.508;13.284;2023-11-19T07:51:39;8.60;99.90
12604;DHT22;6367;52.508;13.284;2023-11-19T07:54:05;8.60;99.90
12604;DHT22;6367;52.508;13.284;2023-11-19T07:56:34;8.70;99.90
12604;DHT22;6367;52.508;13.284;2023-11-19T07:59:01;8.70;99.90
12604;DHT22;6367;52.508;13.284;2023-11-19T08:01:27;8.70;99.90
12604;DHT22;6367;52.508;13.284;2023-11-19T08:03:52;8.70;99.90
12604;DHT22;6367;52.508;13.284;2023-11-19T08:06:18;9.20;99.90
12604;DHT22;6367;52.508;13.284;2023-11-19T08:08:44;8.90;99.90
12604;DHT22;6367;52.508;13.284;2023-11-19T08:11:10;8.90;99.90
12604;DHT22;6367;52.508;13.284;2023-11-19T08:13:36;9.60;99.90
12604;DHT22;6367;52.508;13.284;2023-11-19T08:16:01;8.90;99.90
12604;DHT22;6367;52.508;13.284;2023-11-19T08:18:27;8.90;99.90
12604;DHT22;6367;52.508;13.284;2023-11-19T08:20:53;8.90;99.90
12604;DHT22;6367;52.508;13.284;2023-11-19T08:23:19;9.00;99.90
12604;DHT22;6367;52.508;13.284;2023-11-19T08:25:46;9.00;99.90
12604;DHT22;6367;52.508;13.284;2023-11-19T08:28:12;9.00;99.90
12604;DHT22;6367;52.508;13.284;2023-11-19T08:30:38;9.00;99.90
12604;DHT22;6367;52.508;13.284;2023-11-19T08:33:04;9.10;99.90
12604;DHT22;6367;52.508;13.284;2023-11-19T08:35:31;9.20;99.90
12604;DHT22;6367;52.508;13.284;2023-11-19T08:37:57;9.20;99.90
12604;DHT22;6367;52.508;13.284;2023-11-19T08:40:24;9.30;99.90
12604;DHT22;6367;52.508;13.284;2023-11-19T08:42:51;9.30;99.90
12604;DHT22;6367;52.508;13.284;2023-11-19T08:45:17;9.40;99.90
12604;DHT22;6367;52.508;13.284;2023-11-19T08:47:43;9.40;99.90
12604;DHT22;6367;52.508;13.284;2023-11-19T08:50:10;9.50;99.90
12604;DHT22;6367;52.508;13.284;2023-11-19T08:52:36;9.50;99.90
12604;DHT22;6367;52.508;13.284;2023-11-19T08:55:02;9.70;99.90
12604;DHT22;6367;52.508;13.284;2023-11-19T08:57:28;9.80;99.90
12604;DHT22;6367;52.508;13.284;2023-11-19T08:59:54;9.80;99.90
12604;DHT22;6367;52.508;13.284;2023-11-19T09:02:19;9.80;99.90
12604;DHT22;6367;52.508;13.284;2023-11-19T09:04:45;9.90;99.90
12604;DHT22;6367;52.508;13.284;2023-11-19T09:07:11;9.90;99.90
12604;DHT22;6367;52.508;13.284;2023-11-19T09:09:36;9.90;99.90
12604;DHT22;6367;52.508;13.284;2023-11-19T09:12:03;10.00;99.90
12604;DHT22;6367;52.508;13.284;2023-11-19T09:14:31;10.10;99.90
12604;DHT22;6367;52.508;13.284;2023-11-19T09:16:57;10.10;99.90
12604;DHT22;6367;52.508;13.284;2023-11-19T09:19:23;10.10;99.90
12604;DHT22;6367;52.508;13.284;2023-11-19T09:21:49;10.30;99.90
12604;DHT22;6367;52.508;13.284;2023-11-19T09:24:15;10.30;99.90
12604;DHT22;6367;52.508;13.284;2023-11-19T09:26:41;10.30;99.90
12604;DHT22;6367;52.508;13.284;2023-11-19T09:29:09;10.40;99.90
12604;DHT22;6367;52.508;13.284;2023-11-19T09:31:37;10.40;99.90
12604;DHT22;6367;52.508;13.284;2023-11-19T09:34:03;10.50;99.90
12604;DHT22;6367;52.508;13.284;2023-11-19T09:36:29;10.60;99.90
12604;DHT22;6367;52.508;13.284;2023-11-19T09:38:54;10.60;99.90
12604;DHT22;6367;52.508;13.284;2023-11-19T09:41:20;10.70;99.90
12604;DHT22;6367;52.508;13.284;2023-11-19T09:43:46;10.80;99.90
12604;DHT22;6367;52.508;13.284;2023-11-19T09:46:15;10.90;99.90
12604;DHT22;6367;52.508;13.284;2023-11-19T09:48:42;11.00;99.90
12604;DHT22;6367;52.508;13.284;2023-11-19T09:51:11;11.20;99.90
12604;DHT22;6367;52.508;13.284;2023-11-19T09:53:37;11.30;99.90
12604;DHT22;6367;52.508;13.284;2023-11-19T09:56:04;11.30;99.90
12604;DHT22;6367;52.508;13.284;2023-11-19T09:58:31;11.40;99.90
12604;DHT22;6367;52.508;13.284;2023-11-19T10:00:57;11.50;99.90
12604;DHT22;6367;52.508;13.284;2023-11-19T10:03:33;11.50;99.90
12604;DHT22;6367;52.508;13.284;2023-11-19T10:06:05;11.70;99.90
12604;DHT22;6367;52.508;13.284;2023-11-19T10:08:32;11.70;99.90
12604;DHT22;6367;52.508;13.284;2023-11-19T10:10:58;11.70;99.90
12604;DHT22;6367;52.508;13.284;2023-11-19T10:13:31;11.80;99.90
12604;DHT22;6367;52.508;13.284;2023-11-19T10:15:56;12.50;99.90
12604;DHT22;6367;52.508;13.284;2023-11-19T10:18:28;11.90;99.90
12604;DHT22;6367;52.508;13.284;2023-11-19T10:20:53;12.00;99.90
12604;DHT22;6367;52.508;13.284;2023-11-19T10:23:20;12.00;99.90
12604;DHT22;6367;52.508;13.284;2023-11-19T10:25:46;12.00;99.90
12604;DHT22;6367;52.508;13.284;2023-11-19T10:28:12;12.10;99.90
12604;DHT22;6367;52.508;13.284;2023-11-19T10:30:41;12.20;99.90
12604;DHT22;6367;52.508;13.284;2023-11-19T10:33:08;12.20;99.90
12604;DHT22;6367;52.508;13.284;2023-11-19T10:38:27;12.40;99.90
12604;DHT22;6367;52.508;13.284;2023-11-19T10:40:53;12.60;99.90
12604;DHT22;6367;52.508;13.284;2023-11-19T10:43:23;12.70;99.90
12604;DHT22;6367;52.508;13.284;2023-11-19T10:45:49;12.80;99.90
12604;DHT22;6367;52.508;13.284;2023-11-19T10:48:15;12.90;99.90
12604;DHT22;6367;52.508;13.284;2023-11-19T10:50:42;13.00;99.90
12604;DHT22;6367;52.508;13.284;2023-11-19T10:53:11;13.10;99.90
12604;DHT22;6367;52.508;13.284;2023-11-19T10:55:39;13.20;99.90
12604;DHT22;6367;52.508;13.284;2023-11-19T10:58:08;13.40;99.90
12604;DHT22;6367;52.508;13.284;2023-11-19T11:00:51;13.40;99.90
12604;DHT22;6367;52.508;13.284;2023-11-19T11:03:21;13.50;99.90
12604;DHT22;6367;52.508;13.284;2023-11-19T11:05:51;13.60;99.90
12604;DHT22;6367;52.508;13.284;2023-11-19T11:08:18;13.60;99.90
12604;DHT22;6367;52.508;13.284;2023-11-19T11:10:55;13.60;99.90
12604;DHT22;6367;52.508;13.284;2023-11-19T11:13:24;13.60;99.90
12604;DHT22;6367;52.508;13.284;2023-11-19T11:15:51;13.60;99.90
12604;DHT22;6367;52.508;13.284;2023-11-19T11:18:17;13.60;99.90
12604;DHT22;6367;52.508;13.284;2023-11-19T11:20:44;13.70;99.90
12604;DHT22;6367;52.508;13.284;2023-11-19T11:29:04;13.60;99.90
12604;DHT22;6367;52.508;13.284;2023-11-19T11:31:57;13.70;99.90
12604;DHT22;6367;52.508;13.284;2023-11-19T11:39:31;13.90;99.90
12604;DHT22;6367;52.508;13.284;2023-11-19T11:45:07;14.10;99.90
12604;DHT22;6367;52.508;13.284;2023-11-19T11:50:09;14.30;99.90
12604;DHT22;6367;52.508;13.284;2023-11-19T11:56:11;14.40;99.90
12604;DHT22;6367;52.508;13.284;2023-11-19T11:58:12;14.60;99.90
12604;DHT22;6367;52.508;13.284;2023-11-19T12:00:39;14.60;99.90
12604;DHT22;6367;52.508;13.284;2023-11-19T12:03:07;14.50;99.90
12604;DHT22;6367;52.508;13.284;2023-11-19T12:05:38;14.50;99.90
12604;DHT22;6367;52.508;13.284;2023-11-19T12:08:06;14.50;99.90
12604;DHT22;6367;52.508;13.284;2023-11-19T12:10:49;14.50;99.90
12604;DHT22;6367;52.508;13.284;2023-11-19T12:13:16;14.40;99.90
12604;DHT22;6367;52.508;13.284;2023-11-19T12:18:30;14.60;99.90
12604;DHT22;6367;52.508;13.284;2023-11-19T12:20:59;14.60;99.90
12604;DHT22;6367;52.508;13.284;2023-11-19T12:23:27;14.60;99.90
12604;DHT22;6367;52.508;13.284;2023-11-19T12:25:54;14.50;99.90
12604;DHT22;6367;52.508;13.284;2023-11-19T12:28:21;14.50;99.90
12604;DHT22;6367;52.508;13.284;2023-11-19T12:30:47;14.50;99.90
12604;DHT22;6367;52.508;13.284;2023-11-19T12:33:14;14.50;99.90
12604;DHT22;6367;52.508;13.284;2023-11-19T12:35:41;14.40;99.90
12604;DHT22;6367;52.508;13.284;2023-11-19T12:38:07;14.40;99.90
12604;DHT22;6367;52.508;13.284;2023-11-19T12:40:33;14.40;99.90
12604;DHT22;6367;52.508;13.284;2023-11-19T12:42:59;14.40;99.90
12604;DHT22;6367;52.508;13.284;2023-11-19T12:45:34;14.30;99.90
12604;DHT22;6367;52.508;13.284;2023-11-19T12:48:07;14.30;99.90
12604;DHT22;6367;52.508;13.284;2023-11-19T12:50:54;14.30;99.90
12604;DHT22;6367;52.508;13.284;2023-11-19T12:53:22;14.30;99.90
12604;DHT22;6367;52.508;13.284;2023-11-19T12:55:48;14.40;99.90
12604;DHT22;6367;52.508;13.284;2023-11-19T12:58:33;14.40;99.90
12604;DHT22;6367;52.508;13.284;2023-11-19T13:01:03;14.30;99.90
12604;DHT22;6367;52.508;13.284;2023-11-19T13:03:34;14.30;99.90
12604;DHT22;6367;52.508;13.284;2023-11-19T13:06:08;14.30;99.90
12604;DHT22;6367;52.508;13.284;2023-11-19T13:08:47;14.30;99.90
12604;DHT22;6367;52.508;13.284;2023-11-19T13:11:30;14.40;99.90
12604;DHT22;6367;52.508;13.284;2023-11-19T13:14:01;14.30;99.90
12604;DHT22;6367;52.508;13.284;2023-11-19T13:16:30;14.30;99.90
12604;DHT22;6367;52.508;13.284;2023-11-19T13:18:56;14.30;99.90
12604;DHT22;6367;52.508;13.284;2023-11-19T13:21:23;14.30;99.90
12604;DHT22;6367;52.508;13.284;2023-11-19T13:23:48;14.30;99.90
12604;DHT22;6367;52.508;13.284;2023-11-19T13:26:14;14.30;99.90
12604;DHT22;6367;52.508;13.284;2023-11-19T13:28:40;14.30;99.90
12604;DHT22;6367;52.508;13.284;2023-11-19T13:31:06;13.80;99.90
12604;DHT22;6367;52.508;13.284;2023-11-19T13:33:32;14.30;99.90
12604;DHT22;6367;52.508;13.284;2023-11-19T13:35:57;14.30;99.90
12604;DHT22;6367;52.508;13.284;2023-11-19T13:38:23;14.20;99.90
12604;DHT22;6367;52.508;13.284;2023-11-19T13:40:49;14.30;99.90
12604;DHT22;6367;52.508;13.284;2023-11-19T13:43:16;14.20;99.90
12604;DHT22;6367;52.508;13.284;2023-11-19T13:45:42;14.20;99.90
12604;DHT22;6367;52.508;13.284;2023-11-19T13:48:08;14.20;99.90
12604;DHT22;6367;52.508;13.284;2023-11-19T13:50:34;14.20;99.90
12604;DHT22;6367;52.508;13.284;2023-11-19T13:53:00;14.20;99.90
12604;DHT22;6367;52.508;13.284;2023-11-19T13:55:26;14.20;99.90
12604;DHT22;6367;52.508;13.284;2023-11-19T13:57:52;14.10;99.90
12604;DHT22;6367;52.508;13.284;2023-11-19T14:00:17;14.20;99.90
12604;DHT22;6367;52.508;13.284;2023-11-19T14:02:45;14.20;99.90
12604;DHT22;6367;52.508;13.284;2023-11-19T14:05:12;14.20;99.90
12604;DHT22;6367;52.508;13.284;2023-11-19T14:07:41;14.20;99.90
12604;DHT22;6367;52.508;13.284;2023-11-19T14:10:08;14.20;99.90
12604;DHT22;6367;52.508;13.284;2023-11-19T14:12:37;14.20;99.90
12604;DHT22;6367;52.508;13.284;2023-11-19T14:15:07;14.30;99.90
12604;DHT22;6367;52.508;13.284;2023-11-19T14:17:34;14.10;99.90
12604;DHT22;6367;52.508;13.284;2023-11-19T14:20:01;14.10;99.90
12604;DHT22;6367;52.508;13.284;2023-11-19T14:22:26;14.20;99.90
12604;DHT22;6367;52.508;13.284;2023-11-19T14:24:52;14.20;99.90
12604;DHT22;6367;52.508;13.284;2023-11-19T14:27:18;14.20;99.90
12604;DHT22;6367;52.508;13.284;2023-11-19T14:29:44;14.20;99.90
12604;DHT22;6367;52.508;13.284;2023-11-19T14:32:12;14.10;99.90
12604;DHT22;6367;52.508;13.284;2023-11-19T14:34:38;14.10;99.90
12604;DHT22;6367;52.508;13.284;2023-11-19T14:37:04;14.10;99.90
12604;DHT22;6367;52.508;13.284;2023-11-19T14:39:30;14.10;99.90
12604;DHT22;6367;52.508;13.284;2023-11-19T14:41:57;14.10;99.90
12604;DHT22;6367;52.508;13.284;2023-11-19T14:44:26;14.20;99.90
12604;DHT22;6367;52.508;13.284;2023-11-19T14:46:54;14.30;99.90
12604;DHT22;6367;52.508;13.284;2023-11-19T14:49:20;14.30;99.90
12604;DHT22;6367;52.508;13.284;2023-11-19T14:51:46;14.20;99.90
12604;DHT22;6367;52.508;13.284;2023-11-19T14:54:11;14.30;99.90
12604;DHT22;6367;52.508;13.284;2023-11-19T14:56:40;14.30;99.90
12604;DHT22;6367;52.508;13.284;2023-11-19T14:59:05;14.40;99.90
12604;DHT22;6367;52.508;13.284;2023-11-19T15:01:31;14.30;99.90
12604;DHT22;6367;52.508;13.284;2023-11-19T15:03:57;14.30;99.90
12604;DHT22;6367;52.508;13.284;2023-11-19T15:06:23;14.30;99.90
12604;DHT22;6367;52.508;13.284;2023-11-19T15:08:50;14.20;99.90
12604;DHT22;6367;52.508;13.284;2023-11-19T15:11:16;14.20;99.90
12604;DHT22;6367;52.508;13.284;2023-11-19T15:13:42;14.20;99.90
12604;DHT22;6367;52.508;13.284;2023-11-19T15:16:08;14.20;99.90
12604;DHT22;6367;52.508;13.284;2023-11-19T15:18:37;14.10;99.90
12604;DHT22;6367;52.508;13.284;2023-11-19T15:21:03;14.20;99.90
12604;DHT22;6367;52.508;13.284;2023-11-19T15:23:29;14.20;99.90
12604;DHT22;6367;52.508;13.284;2023-11-19T15:25:55;14.20;99.90
12604;DHT22;6367;52.508;13.284;2023-11-19T15:28:21;14.10;99.90
12604;DHT22;6367;52.508;13.284;2023-11-19T15:30:47;14.00;99.90
12604;DHT22;6367;52.508;13.284;2023-11-19T15:33:13;14.10;99.90
12604;DHT22;6367;52.508;13.284;2023-11-19T15:35:38;14.00;99.90
12604;DHT22;6367;52.508;13.284;2023-11-19T15:38:05;14.00;99.90
12604;DHT22;6367;52.508;13.284;2023-11-19T15:40:33;13.90;99.90
12604;DHT22;6367;52.508;13.284;2023-11-19T15:42:59;14.00;99.90
12604;DHT22;6367;52.508;13.284;2023-11-19T15:45:25;14.40;99.90
12604;DHT22;6367;52.508;13.284;2023-11-19T15:47:50;14.00;99.90
12604;DHT22;6367;52.508;13.284;2023-11-19T15:50:16;14.10;99.90
12604;DHT22;6367;52.508;13.284;2023-11-19T15:52:42;14.00;99.90
12604;DHT22;6367;52.508;13.284;2023-11-19T15:55:09;14.00;99.90
12604;DHT22;6367;52.508;13.284;2023-11-19T15:57:40;14.00;99.90
12604;DHT22;6367;52.508;13.284;2023-11-19T16:00:06;14.00;99.90
12604;DHT22;6367;52.508;13.284;2023-11-19T16:02:36;14.00;99.90